Time;durP1;ratioP1;P1;durP2;ratioP2;P2;SDS_P1;SDS_P2;PMS_P1;PMS_P2;Temp;Humidity;BMP_temperature;BMP_pressure;BME280_temperature;BME280_humidity;BME280_pressure;Samples;Min_cycle;Max_cycle;Signal;HPM_P1;HPM_P2
2023/10/08 00:02:27;;;;;;;0.07;0.07;;;15.00;99.90;;;;;;4957151;28;20212;-80
2023/10/08 00:04:54;;;;;;;0.10;0.10;;;15.00;99.90;;;;;;4974365;28;20184;-80
2023/10/08 00:07:21;;;;;;;0.00;0.00;;;15.00;99.90;;;;;;4958586;28;20218;-80
2023/10/08 00:09:51;;;;;;;0.10;0.10;;;15.10;99.90;;;;;;4956158;28;20188;-80
2023/10/08 00:12:17;;;;;;;0.00;0.00;;;15.10;99.90;;;;;;4958602;28;20267;-80
2023/10/08 00:14:49;;;;;;;0.10;0.10;;;15.10;99.90;;;;;;4957352;28;20302;-80
2023/10/08 00:17:15;;;;;;;0.10;0.10;;;15.10;99.90;;;;;;4958383;28;20724;-80
2023/10/08 00:19:42;;;;;;;0.10;0.10;;;15.20;99.90;;;;;;4958938;28;20193;-80
2023/10/08 00:22:13;;;;;;;0.10;0.10;;;15.30;99.90;;;;;;4958957;28;20193;-80
2023/10/08 00:24:41;;;;;;;0.10;0.10;;;15.30;99.90;;;;;;4958565;28;20235;-80
2023/10/08 00:27:14;;;;;;;0.10;0.10;;;15.40;99.90;;;;;;4959432;28;20279;-80
2023/10/08 00:29:40;;;;;;;0.10;0.10;;;15.40;99.90;;;;;;4959571;28;20179;-80
2023/10/08 00:32:11;;;;;;;0.10;0.10;;;15.40;99.90;;;;;;4958372;28;21167;-80
2023/10/08 00:34:41;;;;;;;0.10;0.10;;;15.50;99.90;;;;;;4972645;28;20267;-80
2023/10/08 00:37:13;;;;;;;0.10;0.10;;;15.50;99.90;;;;;;4959251;28;20271;-80
2023/10/08 00:39:39;;;;;;;0.10;0.10;;;15.60;99.90;;;;;;4959222;28;20185;-80
2023/10/08 00:42:08;;;;;;;0.10;0.10;;;15.70;99.90;;;;;;4959459;28;20187;-80
2023/10/08 00:44:51;;;;;;;0.10;0.10;;;15.70;99.90;;;;;;4956851;28;20195;-80
2023/10/08 00:47:16;;;;;;;0.10;0.10;;;15.70;99.90;;;;;;4974212;28;20211;-80
2023/10/08 00:57:20;;;;;;;0.10;0.10;;;15.70;99.90;;;;;;4961069;28;20236;-80
2023/10/08 00:59:52;;;;;;;0.10;0.10;;;15.80;99.90;;;;;;4961813;28;20246;-80
2023/10/08 01:02:21;;;;;;;0.10;0.10;;;15.80;99.90;;;;;;4961125;28;20184;-80
2023/10/08 01:04:46;;;;;;;0.10;0.10;;;15.90;99.90;;;;;;4960671;28;20275;-80
2023/10/08 01:07:18;;;;;;;0.10;0.10;;;15.70;99.90;;;;;;4958383;28;20638;-80
2023/10/08 01:09:50;;;;;;;0.10;0.10;;;15.70;99.90;;;;;;4959660;28;20640;-80
2023/10/08 01:12:26;;;;;;;0.10;0.10;;;15.70;99.90;;;;;;4961124;28;20187;-80
2023/10/08 01:14:55;;;;;;;0.10;0.10;;;15.70;99.90;;;;;;4961576;28;20624;-80
2023/10/08 01:17:25;;;;;;;0.10;0.10;;;15.60;99.90;;;;;;4976668;28;20313;-80
2023/10/08 01:19:56;;;;;;;0.10;0.10;;;15.60;99.90;;;;;;4962178;28;20184;-80
2023/10/08 01:22:22;;;;;;;0.10;0.10;;;15.70;99.90;;;;;;4960075;28;20240;-80
2023/10/08 01:24:49;;;;;;;0.10;0.10;;;15.60;99.90;;;;;;4960290;28;20763;-80
2023/10/08 01:27:23;;;;;;;0.10;0.10;;;15.70;99.90;;;;;;4960983;28;20258;-81
2023/10/08 01:29:50;;;;;;;0.10;0.10;;;15.80;99.90;;;;;;4961415;28;20172;-80
2023/10/08 01:32:17;;;;;;;0.10;0.10;;;15.90;99.90;;;;;;4961879;28;20188;-80
2023/10/08 01:34:46;;;;;;;0.10;0.10;;;15.90;99.90;;;;;;4959718;28;20192;-80
2023/10/08 01:37:17;;;;;;;0.10;0.10;;;16.00;99.90;;;;;;4962085;28;20195;-80
2023/10/08 01:39:43;;;;;;;0.10;0.10;;;16.00;99.90;;;;;;4961504;28;20663;-80
2023/10/08 01:42:17;;;;;;;0.10;0.10;;;16.10;99.90;;;;;;4962160;28;20613;-80
2023/10/08 01:44:48;;;;;;;0.10;0.10;;;16.10;99.90;;;;;;4959265;28;20177;-80
2023/10/08 01:47:15;;;;;;;0.10;0.10;;;16.20;99.90;;;;;;4961292;28;20216;-80
2023/10/08 01:49:43;;;;;;;0.10;0.10;;;16.20;99.90;;;;;;4961467;28;20219;-80
2023/10/08 01:52:16;;;;;;;0.10;0.10;;;16.10;99.90;;;;;;4961054;28;20176;-80
2023/10/08 01:54:42;;;;;;;0.10;0.10;;;16.10;99.90;;;;;;4960999;28;20280;-80
2023/10/08 01:57:09;;;;;;;0.10;0.10;;;16.10;99.90;;;;;;4959888;28;20809;-80
2023/10/08 01:59:35;;;;;;;0.10;0.10;;;16.20;99.90;;;;;;4959811;28;20200;-81
2023/10/08 02:02:02;;;;;;;0.10;0.10;;;16.30;99.90;;;;;;4960092;28;20699;-80
2023/10/08 02:04:27;;;;;;;0.10;0.10;;;16.30;99.90;;;;;;4960417;28;20228;-80
2023/10/08 02:06:53;;;;;;;0.10;0.10;;;16.40;99.90;;;;;;4958428;28;20209;-80
2023/10/08 02:09:25;;;;;;;0.10;0.10;;;16.40;99.90;;;;;;4959429;28;20176;-80
2023/10/08 02:11:51;;;;;;;0.10;0.10;;;16.40;99.90;;;;;;4961141;28;20645;-80
2023/10/08 02:14:20;;;;;;;0.10;0.10;;;16.50;99.90;;;;;;4961124;28;20291;-80
2023/10/08 02:16:46;;;;;;;0.10;0.10;;;16.50;99.90;;;;;;4976682;28;20688;-80
2023/10/08 02:19:13;;;;;;;0.10;0.10;;;16.50;99.90;;;;;;4962250;28;20259;-80
2023/10/08 02:21:46;;;;;;;0.10;0.10;;;16.50;99.90;;;;;;4958929;28;20619;-80
2023/10/08 02:24:12;;;;;;;0.10;0.10;;;16.50;99.90;;;;;;4959993;28;20201;-80
2023/10/08 02:26:38;;;;;;;0.10;0.10;;;16.60;99.90;;;;;;4959759;28;20203;-80
2023/10/08 02:29:10;;;;;;;0.10;0.10;;;16.60;99.90;;;;;;4959997;28;20554;-80
2023/10/08 02:31:39;;;;;;;0.10;0.10;;;16.60;99.90;;;;;;4959991;28;20278;-80
2023/10/08 02:34:09;;;;;;;0.10;0.10;;;16.60;99.90;;;;;;4959950;28;20236;-80
2023/10/08 02:36:36;;;;;;;0.10;0.10;;;16.60;99.90;;;;;;4959080;28;20728;-80
2023/10/08 02:39:06;;;;;;;0.10;0.10;;;16.60;99.90;;;;;;4960472;28;20204;-80
2023/10/08 02:41:32;;;;;;;0.10;0.10;;;16.50;99.90;;;;;;4975666;28;20271;-80
2023/10/08 02:43:59;;;;;;;0.10;0.10;;;16.50;99.90;;;;;;4973816;28;20204;-80
2023/10/08 02:46:26;;;;;;;0.10;0.10;;;16.60;99.90;;;;;;4961749;28;20627;-80
2023/10/08 02:48:52;;;;;;;0.10;0.10;;;16.60;99.90;;;;;;4959064;28;20260;-81
2023/10/08 02:51:20;;;;;;;0.10;0.10;;;16.60;99.90;;;;;;4961674;28;20193;-81
2023/10/08 02:53:46;;;;;;;0.10;0.10;;;16.60;99.90;;;;;;4957870;28;20209;-80
2023/10/08 02:56:15;;;;;;;0.10;0.10;;;16.60;99.90;;;;;;4960845;28;20301;-81
2023/10/08 02:58:43;;;;;;;0.10;0.10;;;16.60;99.90;;;;;;4960857;28;20185;-80
2023/10/08 03:01:12;;;;;;;0.10;0.10;;;16.60;99.90;;;;;;4960125;28;20181;-80
2023/10/08 03:03:46;;;;;;;0.10;0.10;;;16.60;99.90;;;;;;4957720;28;20229;-81
2023/10/08 03:06:14;;;;;;;0.10;0.10;;;16.60;99.90;;;;;;4960756;28;20179;-81
2023/10/08 03:08:43;;;;;;;0.10;0.10;;;16.50;99.90;;;;;;4958909;28;21137;-79
2023/10/08 03:11:16;;;;;;;0.10;0.10;;;16.50;99.90;;;;;;4958458;28;20268;-81
2023/10/08 03:13:46;;;;;;;0.10;0.10;;;16.50;99.90;;;;;;4959162;28;20200;-80
2023/10/08 03:16:13;;;;;;;0.10;0.10;;;16.50;99.90;;;;;;4960372;28;20177;-81
2023/10/08 03:18:50;;;;;;;0.10;0.10;;;16.50;99.90;;;;;;4960322;28;20184;-81
2023/10/08 03:21:20;;;;;;;0.10;0.10;;;16.50;99.90;;;;;;4959438;28;20187;-81
2023/10/08 03:23:50;;;;;;;0.10;0.10;;;16.40;99.90;;;;;;4960936;28;20685;-81
2023/10/08 03:28:57;;;;;;;0.10;0.10;;;16.40;99.90;;;;;;4960622;28;20272;-81
2023/10/08 03:31:44;;;;;;;0.10;0.10;;;16.40;99.90;;;;;;4961967;28;20201;-81
2023/10/08 03:34:13;;;;;;;0.10;0.10;;;16.40;99.90;;;;;;4959422;28;20271;-81
2023/10/08 03:36:44;;;;;;;0.10;0.10;;;16.50;99.90;;;;;;4973542;28;20330;-81
2023/10/08 03:39:13;;;;;;;0.10;0.10;;;16.50;99.90;;;;;;4960233;28;20244;-80
2023/10/08 03:41:40;;;;;;;0.10;0.10;;;16.40;99.90;;;;;;4958795;28;20192;-81
2023/10/08 03:44:12;;;;;;;0.10;0.10;;;16.40;99.90;;;;;;4960581;28;20272;-81
2023/10/08 03:46:42;;;;;;;0.10;0.10;;;16.30;99.90;;;;;;4959081;28;20196;-81
2023/10/08 03:49:31;;;;;;;0.10;0.10;;;16.20;99.90;;;;;;4959383;28;20227;-81
2023/10/08 03:51:57;;;;;;;0.10;0.10;;;16.20;99.90;;;;;;4959614;28;20567;-81
2023/10/08 03:54:35;;;;;;;0.10;0.10;;;16.10;99.90;;;;;;4958027;28;20192;-81
2023/10/08 03:57:04;;;;;;;0.10;0.10;;;16.10;99.90;;;;;;4972694;28;20217;-81
2023/10/08 04:02:54;;;;;;;0.10;0.10;;;15.80;99.90;;;;;;4958458;28;20670;-80
2023/10/08 04:04:57;;;;;;;0.10;0.10;;;15.80;99.90;;;;;;4962428;28;20227;-81
2023/10/08 04:12:35;;;;;;;0.10;0.10;;;16.00;99.90;;;;;;4960545;28;20258;-80
2023/10/08 04:15:07;;;;;;;0.10;0.10;;;16.10;99.90;;;;;;4956629;28;20189;-80
2023/10/08 04:17:45;;;;;;;0.10;0.10;;;16.20;99.90;;;;;;4957936;28;20604;-80
2023/10/08 04:22:56;;;;;;;0.10;0.10;;;16.20;99.90;;;;;;4960627;28;20221;-80
2023/10/08 04:25:22;;;;;;;0.10;0.10;;;16.20;99.90;;;;;;4959183;28;20189;-81
2023/10/08 04:27:49;;;;;;;0.10;0.10;;;16.20;99.90;;;;;;4958506;28;20199;-80
2023/10/08 04:30:16;;;;;;;0.10;0.10;;;16.00;99.90;;;;;;4960388;28;20176;-80
2023/10/08 04:32:42;;;;;;;0.10;0.10;;;16.00;99.90;;;;;;4962281;28;20320;-80
2023/10/08 04:35:14;;;;;;;0.10;0.10;;;16.00;99.90;;;;;;4961025;28;20299;-80
2023/10/08 04:37:40;;;;;;;0.10;0.10;;;16.00;99.90;;;;;;4966258;28;20177;-81
2023/10/08 04:40:16;;;;;;;0.10;0.10;;;16.00;99.90;;;;;;4963393;28;20219;-81
2023/10/08 04:42:44;;;;;;;0.10;0.10;;;16.10;99.90;;;;;;4963337;28;20315;-81
2023/10/08 04:45:13;;;;;;;0.10;0.10;;;16.10;99.90;;;;;;4964158;28;20189;-81
2023/10/08 04:47:42;;;;;;;0.10;0.10;;;16.20;99.90;;;;;;4966462;28;20219;-81
2023/10/08 04:50:14;;;;;;;0.10;0.10;;;16.20;99.90;;;;;;4965372;28;20177;-81
2023/10/08 04:52:46;;;;;;;0.10;0.10;;;16.20;99.90;;;;;;4981601;28;20225;-81
2023/10/08 04:55:20;;;;;;;0.10;0.10;;;16.10;99.90;;;;;;4968277;28;20180;-80
2023/10/08 04:57:46;;;;;;;0.10;0.10;;;16.10;99.90;;;;;;4981641;28;20181;-81
2023/10/08 05:00:15;;;;;;;0.10;0.10;;;16.00;99.90;;;;;;4962725;28;20185;-81
2023/10/08 05:02:50;;;;;;;0.10;0.10;;;16.10;99.90;;;;;;4978548;28;20688;-82
2023/10/08 05:13:15;;;;;;;0.10;0.10;;;16.00;99.90;;;;;;4963209;28;20822;-81
2023/10/08 05:15:49;;;;;;;0.10;0.10;;;16.00;99.90;;;;;;4962651;28;20191;-82
2023/10/08 05:34:32;;;;;;;0.10;0.10;;;15.90;99.90;;;;;;4961187;28;20208;-81
2023/10/08 05:39:32;;;;;;;0.10;0.10;;;15.80;99.90;;;;;;4962177;28;20286;-82
2023/10/08 05:53:02;;;;;;;0.10;0.10;;;16.00;99.90;;;;;;4964859;28;20205;-82
2023/10/08 05:55:36;;;;;;;0.10;0.10;;;16.00;99.90;;;;;;4964099;28;20232;-82
2023/10/08 06:00:46;;;;;;;0.10;0.10;;;15.90;99.90;;;;;;4963450;28;20196;-82
2023/10/08 06:03:32;;;;;;;0.10;0.10;;;15.90;99.90;;;;;;4963374;28;20248;-82
2023/10/08 06:06:22;;;;;;;0.10;0.10;;;15.90;99.90;;;;;;4962777;28;20194;-82
2023/10/08 06:09:21;;;;;;;0.10;0.10;;;15.90;99.90;;;;;;4962598;28;20207;-81
2023/10/08 06:12:06;;;;;;;0.10;0.10;;;15.90;99.90;;;;;;4961314;28;20588;-81
2023/10/08 06:17:55;;;;;;;0.10;0.10;;;15.90;99.90;;;;;;4962854;28;20271;-81
2023/10/08 06:20:25;;;;;;;0.10;0.10;;;15.80;99.90;;;;;;4961372;28;20280;-80
2023/10/08 06:22:58;;;;;;;0.10;0.10;;;15.70;99.90;;;;;;4960894;28;20270;-81
2023/10/08 06:25:24;;;;;;;0.10;0.10;;;15.80;99.90;;;;;;4959178;28;22041;-80
2023/10/08 06:27:57;;;;;;;0.10;0.10;;;15.80;99.90;;;;;;4962215;28;20212;-80
2023/10/08 06:30:28;;;;;;;0.10;0.10;;;15.90;99.90;;;;;;4959052;28;20188;-80
2023/10/08 06:32:54;;;;;;;0.10;0.10;;;15.90;99.90;;;;;;4958381;28;20355;-80
2023/10/08 06:35:25;;;;;;;0.10;0.10;;;16.10;99.90;;;;;;4961307;28;20272;-80
2023/10/08 06:37:54;;;;;;;0.10;0.10;;;16.10;99.90;;;;;;4960576;28;20544;-80
2023/10/08 06:43:24;;;;;;;0.10;0.10;;;16.20;99.90;;;;;;4962187;28;20220;-80
2023/10/08 06:45:53;;;;;;;0.10;0.10;;;16.30;99.90;;;;;;4960437;28;20211;-80
2023/10/08 06:48:25;;;;;;;0.10;0.10;;;16.30;99.90;;;;;;4960042;28;20212;-80
2023/10/08 06:51:07;;;;;;;0.10;0.10;;;16.40;99.90;;;;;;4976289;28;20180;-80
2023/10/08 06:53:38;;;;;;;0.10;0.10;;;16.40;99.90;;;;;;4959338;28;20209;-81
2023/10/08 06:56:04;;;;;;;0.10;0.10;;;16.50;99.90;;;;;;4960865;28;20184;-81
2023/10/08 06:58:33;;;;;;;0.10;0.10;;;16.50;99.90;;;;;;4960852;28;20885;-80
2023/10/08 07:00:58;;;;;;;0.10;0.10;;;16.60;99.90;;;;;;4960387;28;20196;-81
2023/10/08 07:03:24;;;;;;;0.10;0.10;;;16.70;99.90;;;;;;4961436;28;20226;-81
2023/10/08 07:05:57;;;;;;;0.10;0.10;;;16.70;99.90;;;;;;4961220;28;20263;-81
2023/10/08 07:08:24;;;;;;;0.10;0.10;;;16.60;99.90;;;;;;4975800;28;20672;-80
2023/10/08 07:10:53;;;;;;;0.10;0.10;;;16.70;99.90;;;;;;4962348;28;20661;-80
2023/10/08 07:13:23;;;;;;;0.10;0.10;;;16.70;99.90;;;;;;4960662;28;20209;-80
2023/10/08 07:15:50;;;;;;;0.10;0.10;;;16.70;99.90;;;;;;4958693;28;20247;-80
2023/10/08 07:18:22;;;;;;;0.10;0.10;;;16.80;99.90;;;;;;4957877;28;20279;-80
2023/10/08 07:20:53;;;;;;;0.10;0.10;;;16.80;99.90;;;;;;4958388;28;20189;-80
2023/10/08 07:23:25;;;;;;;0.10;0.10;;;16.80;99.90;;;;;;4957394;28;20217;-80
2023/10/08 07:26:11;;;;;;;0.10;0.10;;;16.90;99.90;;;;;;4959189;28;20284;-81
2023/10/08 07:28:41;;;;;;;0.10;0.10;;;16.90;99.90;;;;;;4958946;28;20254;-81
2023/10/08 07:31:16;;;;;;;0.10;0.10;;;16.90;99.90;;;;;;4960460;28;20252;-81
2023/10/08 07:33:47;;;;;;;0.10;0.10;;;17.00;99.90;;;;;;4961797;28;20231;-81
2023/10/08 07:36:18;;;;;;;0.10;0.10;;;17.00;99.90;;;;;;4960358;28;20181;-84
2023/10/08 07:38:44;;;;;;;0.10;0.10;;;17.10;99.90;;;;;;4958024;28;20192;-80
2023/10/08 07:41:14;;;;;;;0.10;0.10;;;17.00;99.90;;;;;;4957418;28;20200;-81
2023/10/08 07:43:44;;;;;;;0.10;0.10;;;17.00;99.90;;;;;;4959165;28;20209;-80
2023/10/08 07:46:10;;;;;;;0.10;0.10;;;17.10;99.90;;;;;;4960353;28;20600;-81
2023/10/08 07:48:42;;;;;;;0.10;0.10;;;17.10;99.90;;;;;;4961179;28;20216;-80
2023/10/08 07:51:07;;;;;;;0.10;0.10;;;17.10;99.90;;;;;;4960110;28;20217;-81
2023/10/08 07:53:40;;;;;;;0.10;0.10;;;17.10;99.90;;;;;;4958786;28;20712;-80
2023/10/08 07:56:06;;;;;;;0.10;0.10;;;17.20;99.90;;;;;;4958194;28;20189;-80
2023/10/08 07:58:35;;;;;;;0.10;0.10;;;17.20;99.90;;;;;;4961289;28;20205;-81
2023/10/08 08:01:05;;;;;;;0.10;0.10;;;17.30;99.90;;;;;;4960273;28;20184;-81
2023/10/08 08:03:31;;;;;;;0.10;0.10;;;17.40;99.90;;;;;;4960744;28;20822;-81
2023/10/08 08:05:58;;;;;;;0.10;0.10;;;17.40;99.90;;;;;;4962434;28;20192;-82
2023/10/08 08:08:27;;;;;;;0.10;0.10;;;17.50;99.90;;;;;;4957363;28;20221;-80
2023/10/08 08:10:57;;;;;;;0.10;0.10;;;17.60;99.90;;;;;;4964929;28;20185;-81
2023/10/08 08:13:27;;;;;;;0.10;0.10;;;17.70;99.90;;;;;;4963870;28;20766;-81
2023/10/08 08:15:58;;;;;;;0.10;0.10;;;17.80;99.90;;;;;;4963578;28;20200;-81
2023/10/08 08:18:32;;;;;;;0.10;0.10;;;17.90;99.90;;;;;;4964436;28;20189;-82
2023/10/08 08:21:01;;;;;;;0.10;0.10;;;18.00;99.90;;;;;;4965633;28;20194;-82
2023/10/08 08:23:28;;;;;;;0.10;0.10;;;18.10;99.90;;;;;;4961424;28;20435;-81
2023/10/08 08:26:07;;;;;;;0.10;0.10;;;18.10;99.90;;;;;;4964464;28;20436;-81
2023/10/08 08:28:33;;;;;;;0.10;0.10;;;18.10;99.90;;;;;;4964479;28;20445;-81
2023/10/08 08:31:04;;;;;;;0.10;0.10;;;18.20;99.90;;;;;;4963040;28;20195;-81
2023/10/08 08:33:52;;;;;;;0.10;0.10;;;18.10;99.90;;;;;;4964202;28;20538;-82
2023/10/08 08:36:16;;;;;;;0.10;0.10;;;18.20;99.90;;;;;;4966958;28;20194;-81
2023/10/08 08:38:42;;;;;;;0.10;0.10;;;18.20;99.90;;;;;;4965586;28;20190;-82
2023/10/08 08:41:09;;;;;;;0.10;0.10;;;18.30;99.90;;;;;;4963242;28;20212;-81
2023/10/08 08:43:35;;;;;;;0.10;0.10;;;18.30;99.90;;;;;;4962836;28;20208;-82
2023/10/08 08:46:10;;;;;;;0.10;0.10;;;18.40;99.90;;;;;;4962670;28;20188;-81
2023/10/08 08:48:36;;;;;;;0.10;0.10;;;18.40;99.90;;;;;;4960192;28;20215;-81
2023/10/08 08:51:02;;;;;;;0.10;0.10;;;18.50;99.90;;;;;;4959993;28;20189;-81
2023/10/08 08:53:28;;;;;;;0.10;0.10;;;18.50;99.90;;;;;;4959736;28;20551;-82
2023/10/08 08:55:55;;;;;;;0.00;0.00;;;18.60;99.90;;;;;;4959396;28;20188;-82
2023/10/08 08:58:22;;;;;;;0.10;0.10;;;18.70;99.90;;;;;;4960117;28;20651;-82
2023/10/08 09:00:49;;;;;;;0.10;0.10;;;18.70;99.90;;;;;;4961160;28;20559;-81
2023/10/08 09:03:15;;;;;;;0.10;0.10;;;18.80;99.90;;;;;;4960393;28;20220;-82
2023/10/08 09:05:42;;;;;;;0.10;0.10;;;18.80;99.90;;;;;;4961620;28;20280;-82
2023/10/08 09:08:09;;;;;;;0.10;0.10;;;18.80;99.90;;;;;;4960744;28;20207;-82
2023/10/08 09:10:37;;;;;;;0.10;0.10;;;18.80;99.90;;;;;;4961657;28;20192;-81
2023/10/08 09:13:11;;;;;;;0.10;0.10;;;18.80;99.90;;;;;;4960458;28;20239;-81
2023/10/08 09:15:37;;;;;;;0.10;0.10;;;18.80;99.90;;;;;;4961154;28;20175;-80
2023/10/08 09:18:04;;;;;;;0.10;0.10;;;18.80;99.90;;;;;;4958939;28;20188;-81
2023/10/08 09:20:31;;;;;;;0.10;0.10;;;18.80;99.90;;;;;;4959730;28;21807;-81
2023/10/08 09:23:13;;;;;;;0.10;0.10;;;18.90;99.90;;;;;;4960979;28;20205;-81
2023/10/08 09:25:40;;;;;;;0.10;0.10;;;19.00;99.90;;;;;;4962226;28;20189;-81
2023/10/08 09:28:12;;;;;;;0.10;0.10;;;19.20;99.90;;;;;;4960477;28;20217;-81
2023/10/08 09:30:39;;;;;;;0.10;0.10;;;19.30;99.90;;;;;;4960101;28;20444;-80
2023/10/08 09:33:12;;;;;;;0.10;0.10;;;19.50;99.90;;;;;;4961679;28;20704;-81
2023/10/08 09:35:38;;;;;;;0.10;0.10;;;19.70;99.90;;;;;;4960629;28;20204;-81
2023/10/08 09:38:08;;;;;;;0.10;0.10;;;19.60;99.90;;;;;;4974903;28;20552;-81
2023/10/08 09:40:38;;;;;;;0.10;0.10;;;19.70;99.90;;;;;;4962868;28;20542;-81
2023/10/08 09:43:04;;;;;;;0.10;0.10;;;19.80;99.90;;;;;;4959415;28;20291;-81
2023/10/08 09:45:30;;;;;;;0.10;0.10;;;19.70;99.90;;;;;;4974901;28;20711;-81
2023/10/08 09:47:56;;;;;;;0.10;0.10;;;19.80;99.90;;;;;;4960414;28;20208;-81
2023/10/08 09:50:38;;;;;;;0.10;0.10;;;19.70;99.90;;;;;;4959905;28;20185;-81
2023/10/08 09:53:16;;;;;;;0.10;0.10;;;19.80;99.90;;;;;;4954826;28;20258;-81
2023/10/08 09:56:01;;;;;;;0.10;0.10;;;19.80;99.90;;;;;;4959920;28;20207;-82
2023/10/08 09:58:29;;;;;;;0.10;0.10;;;19.80;99.90;;;;;;4975287;28;20201;-81
2023/10/08 10:00:57;;;;;;;0.10;0.10;;;20.00;99.90;;;;;;4964904;28;20783;-81
2023/10/08 10:03:25;;;;;;;0.10;0.10;;;20.00;99.90;;;;;;4963725;28;20228;-82
2023/10/08 10:05:51;;;;;;;0.10;0.10;;;20.10;99.90;;;;;;4964855;28;20186;-81
2023/10/08 10:08:17;;;;;;;0.10;0.10;;;20.00;99.90;;;;;;4962993;28;20692;-82
2023/10/08 10:10:47;;;;;;;0.10;0.10;;;20.00;99.90;;;;;;4983818;28;20211;-82
2023/10/08 10:13:15;;;;;;;0.10;0.10;;;19.90;99.90;;;;;;4963050;28;20205;-80
2023/10/08 10:15:42;;;;;;;0.10;0.10;;;19.90;99.90;;;;;;4966129;28;20228;-81
2023/10/08 10:18:13;;;;;;;0.10;0.10;;;19.80;99.90;;;;;;4977722;28;20257;-81
2023/10/08 10:20:45;;;;;;;0.10;0.10;;;19.70;99.90;;;;;;4959262;28;20257;-80
2023/10/08 10:23:36;;;;;;;0.10;0.10;;;19.70;99.90;;;;;;4957192;28;20211;-81
2023/10/08 10:26:02;;;;;;;0.10;0.10;;;19.70;99.90;;;;;;4958145;28;20268;-81
2023/10/08 10:28:29;;;;;;;0.10;0.10;;;19.60;99.90;;;;;;4958291;28;20216;-81
2023/10/08 10:30:56;;;;;;;0.10;0.10;;;19.70;99.90;;;;;;4961021;28;20184;-81
2023/10/08 10:33:29;;;;;;;0.10;0.10;;;19.60;99.90;;;;;;4957992;28;20204;-81
2023/10/08 10:35:55;;;;;;;0.10;0.10;;;19.80;99.90;;;;;;4957972;28;20184;-81
2023/10/08 10:38:26;;;;;;;0.10;0.10;;;19.80;99.90;;;;;;4960439;28;20331;-81
2023/10/08 10:40:57;;;;;;;0.10;0.10;;;19.80;99.90;;;;;;4959882;28;20232;-81
2023/10/08 10:43:33;;;;;;;0.10;0.10;;;20.00;99.90;;;;;;4961438;28;20204;-81
2023/10/08 10:46:24;;;;;;;0.10;0.10;;;20.10;99.90;;;;;;4964062;28;20185;-81
2023/10/08 10:48:57;;;;;;;0.10;0.10;;;20.20;99.90;;;;;;4964990;28;20315;-81
2023/10/08 10:51:23;;;;;;;0.10;0.10;;;20.60;99.90;;;;;;4961080;28;20186;-81
2023/10/08 10:54:07;;;;;;;0.10;0.10;;;21.00;99.90;;;;;;4959926;28;20208;-81
2023/10/08 10:56:40;;;;;;;0.10;0.10;;;21.00;99.90;;;;;;4962622;28;20185;-81
2023/10/08 11:02:06;;;;;;;0.10;0.10;;;21.60;99.90;;;;;;4962588;28;20195;-81
2023/10/08 11:04:33;;;;;;;0.10;0.10;;;22.00;99.90;;;;;;4962058;28;20323;-81
2023/10/08 11:07:00;;;;;;;0.10;0.10;;;22.20;99.90;;;;;;4958399;28;20199;-81
2023/10/08 11:09:37;;;;;;;0.10;0.10;;;22.40;99.90;;;;;;4964103;28;20200;-81
2023/10/08 11:12:10;;;;;;;0.10;0.10;;;22.60;99.90;;;;;;4960139;28;20208;-81
2023/10/08 11:14:41;;;;;;;0.10;0.10;;;22.80;99.90;;;;;;4959382;28;20217;-81
2023/10/08 11:17:17;;;;;;;0.10;0.10;;;22.70;99.90;;;;;;4957923;28;20648;-81
2023/10/08 11:19:46;;;;;;;0.10;0.10;;;23.00;99.90;;;;;;4961541;28;20203;-81
2023/10/08 11:22:16;;;;;;;0.10;0.10;;;23.20;99.90;;;;;;4961530;28;20185;-81
2023/10/08 11:24:47;;;;;;;0.10;0.10;;;22.70;99.90;;;;;;4957708;28;20208;-81
2023/10/08 11:27:16;;;;;;;0.10;0.10;;;22.70;99.90;;;;;;4958491;28;20846;-80
2023/10/08 11:29:56;;;;;;;0.10;0.10;;;22.70;99.90;;;;;;4976177;28;20664;-81
2023/10/08 11:32:25;;;;;;;0.10;0.10;;;22.40;99.90;;;;;;4960837;28;20184;-81
2023/10/08 11:35:13;;;;;;;0.10;0.10;;;22.50;99.90;;;;;;4961938;28;20177;-81
2023/10/08 11:37:45;;;;;;;0.10;0.10;;;22.40;99.90;;;;;;4958782;28;20188;-81
2023/10/08 11:40:48;;;;;;;0.10;0.10;;;22.30;99.90;;;;;;4970113;28;20193;-81
2023/10/08 11:43:15;;;;;;;0.10;0.10;;;22.30;99.90;;;;;;4964657;28;20212;-81
2023/10/08 11:45:48;;;;;;;0.10;0.10;;;22.20;99.90;;;;;;4981156;28;20185;-81
2023/10/08 11:48:17;;;;;;;0.10;0.10;;;22.10;99.90;;;;;;4964184;28;20685;-79
2023/10/08 11:50:43;;;;;;;0.10;0.10;;;22.00;99.90;;;;;;4960910;28;20205;-79
2023/10/08 11:53:11;;;;;;;0.10;0.10;;;22.00;99.90;;;;;;4961079;28;20236;-79
2023/10/08 11:55:38;;;;;;;0.10;0.10;;;21.90;99.90;;;;;;4961839;28;20211;-79
2023/10/08 11:58:11;;;;;;;0.10;0.10;;;21.90;99.90;;;;;;4959549;28;20183;-79
2023/10/08 12:00:44;;;;;;;0.10;0.10;;;21.90;99.90;;;;;;4958340;28;20199;-79
2023/10/08 12:03:17;;;;;;;0.10;0.10;;;22.00;99.90;;;;;;4960742;28;20649;-79
2023/10/08 12:05:47;;;;;;;0.10;0.10;;;21.90;99.90;;;;;;4960802;28;20270;-79
2023/10/08 12:08:17;;;;;;;0.10;0.10;;;22.00;99.90;;;;;;4957105;28;20210;-79
2023/10/08 12:10:46;;;;;;;0.10;0.10;;;22.10;99.90;;;;;;4958813;28;20551;-79
2023/10/08 12:13:12;;;;;;;0.10;0.10;;;22.10;99.90;;;;;;4956846;28;20260;-79
2023/10/08 12:15:38;;;;;;;0.10;0.10;;;22.10;99.90;;;;;;4956824;28;20184;-79
2023/10/08 12:20:49;;;;;;;0.10;0.10;;;22.20;99.90;;;;;;4960617;28;20268;-80
2023/10/08 12:23:26;;;;;;;0.10;0.10;;;22.10;99.90;;;;;;4959314;28;20216;-80
2023/10/08 12:25:56;;;;;;;0.10;0.10;;;22.30;99.90;;;;;;4958406;28;20664;-80
2023/10/08 12:28:25;;;;;;;0.10;0.10;;;22.40;99.90;;;;;;4960209;28;20212;-80
2023/10/08 12:30:55;;;;;;;0.10;0.10;;;22.40;99.90;;;;;;4957489;28;20181;-81
2023/10/08 12:33:24;;;;;;;0.10;0.10;;;22.60;99.90;;;;;;4959022;28;20706;-81
2023/10/08 12:35:55;;;;;;;0.10;0.10;;;22.90;99.90;;;;;;4955469;28;20552;-80
2023/10/08 12:38:22;;;;;;;0.10;0.10;;;22.90;99.90;;;;;;4975316;28;20671;-81
2023/10/08 12:40:54;;;;;;;0.10;0.10;;;23.00;99.90;;;;;;4958884;28;20267;-81
2023/10/08 12:43:26;;;;;;;0.10;0.10;;;23.20;99.90;;;;;;4959590;28;20209;-81
2023/10/08 12:45:53;;;;;;;0.10;0.10;;;23.00;99.90;;;;;;4959540;28;20185;-81
2023/10/08 12:48:20;;;;;;;0.10;0.10;;;23.50;99.90;;;;;;4960404;28;20208;-81
2023/10/08 12:50:52;;;;;;;0.10;0.10;;;23.70;99.90;;;;;;4960382;28;20187;-81
2023/10/08 12:53:26;;;;;;;0.10;0.10;;;23.90;99.90;;;;;;4959106;28;20590;-81
2023/10/08 12:55:56;;;;;;;0.10;0.10;;;24.00;99.90;;;;;;4961290;28;20577;-81
2023/10/08 12:58:25;;;;;;;0.10;0.10;;;24.00;99.90;;;;;;4962782;28;20291;-81
2023/10/08 13:00:57;;;;;;;0.10;0.10;;;24.20;99.90;;;;;;4962009;28;20247;-81
2023/10/08 13:03:23;;;;;;;0.10;0.10;;;24.40;99.90;;;;;;4962906;28;20217;-81
2023/10/08 13:05:52;;;;;;;0.10;0.10;;;24.40;99.90;;;;;;4960180;28;20188;-81
2023/10/08 13:08:19;;;;;;;0.10;0.10;;;24.50;99.90;;;;;;4961543;28;20197;-81
2023/10/08 13:10:46;;;;;;;0.10;0.10;;;24.40;99.90;;;;;;4961431;28;20193;-81
2023/10/08 13:13:12;;;;;;;0.10;0.10;;;24.40;99.90;;;;;;4963304;28;20201;-81
2023/10/08 13:15:41;;;;;;;0.10;0.10;;;24.40;99.90;;;;;;4961185;28;20191;-81
2023/10/08 13:18:07;;;;;;;0.10;0.10;;;24.50;99.90;;;;;;4964316;28;20552;-81
2023/10/08 13:20:34;;;;;;;0.10;0.10;;;24.60;99.90;;;;;;4962771;28;20201;-81
2023/10/08 13:23:00;;;;;;;0.10;0.10;;;24.60;99.90;;;;;;4959460;28;20215;-81
2023/10/08 13:25:26;;;;;;;0.10;0.10;;;24.60;99.90;;;;;;4960865;28;20272;-81
2023/10/08 13:27:52;;;;;;;0.10;0.10;;;24.60;99.90;;;;;;4957488;28;20213;-82
2023/10/08 13:30:17;;;;;;;0.10;0.10;;;24.80;99.90;;;;;;4962032;28;20188;-81
2023/10/08 13:32:43;;;;;;;0.10;0.10;;;24.50;99.90;;;;;;4962548;28;20283;-81
2023/10/08 13:35:11;;;;;;;0.10;0.10;;;24.20;99.90;;;;;;4962166;28;20216;-82
2023/10/08 13:37:37;;;;;;;0.10;0.10;;;24.60;99.90;;;;;;4960481;28;20575;-83
2023/10/08 13:40:03;;;;;;;0.10;0.10;;;24.80;99.90;;;;;;4960240;28;20732;-81
2023/10/08 13:42:29;;;;;;;0.10;0.10;;;25.00;99.90;;;;;;4961128;28;20197;-80
2023/10/08 13:44:57;;;;;;;0.10;0.10;;;24.90;99.90;;;;;;4957993;28;20683;-80
2023/10/08 13:47:25;;;;;;;0.10;0.10;;;24.60;99.90;;;;;;4961082;28;20691;-81
2023/10/08 13:49:52;;;;;;;0.10;0.10;;;24.50;99.90;;;;;;4959735;28;20182;-81
2023/10/08 13:52:26;;;;;;;0.10;0.10;;;24.40;99.90;;;;;;4959317;28;20224;-84
2023/10/08 13:54:55;;;;;;;0.10;0.10;;;24.30;99.90;;;;;;4960710;28;20185;-81
2023/10/08 13:57:21;;;;;;;0.10;0.10;;;24.00;99.90;;;;;;4959910;28;20574;-81
2023/10/08 13:59:50;;;;;;;0.10;0.10;;;23.80;99.90;;;;;;4960309;28;20189;-80
2023/10/08 14:02:19;;;;;;;0.10;0.10;;;23.80;99.90;;;;;;4957897;28;20196;-80
2023/10/08 14:04:45;;;;;;;0.10;0.10;;;23.60;99.90;;;;;;4956423;28;20500;-80
2023/10/08 14:07:16;;;;;;;0.10;0.10;;;23.60;99.90;;;;;;4955776;28;20215;-80
2023/10/08 14:09:45;;;;;;;0.10;0.10;;;23.40;99.90;;;;;;4954763;28;20177;-81
2023/10/08 14:12:11;;;;;;;0.10;0.10;;;23.40;99.90;;;;;;4957983;28;20184;-81
2023/10/08 14:14:40;;;;;;;0.10;0.10;;;23.40;99.90;;;;;;4961817;28;20205;-82
2023/10/08 14:17:07;;;;;;;0.10;0.10;;;23.40;99.90;;;;;;4963216;28;20209;-82